Hailey, ID (83333)

11:38 AM MDT on May 20, 2018 (GMT -0600)
China Gardens | | Change Station
Active Advisory: Flood Advisory Active Notice: Flood Advisory

Elev 5322 ft 43.52 °N, 114.32 °W | Updated 2 minutes ago

Mostly Cloudy
Mostly Cloudy
61.7 °F
Feels Like 61.7 °F
N
4.0
Wind Variable Wind from NNW
Gusts 6.0 mph

Today
High -- | Low -- °F
--% Chance of Precip.
Yesterday
High -- | Low -- °F
Precip. -- in
Pressure 30.02 in
Visibility 10.0 miles
Clouds Few 5000 ft
Scattered Clouds 8000 ft
Mostly Cloudy 11000 ft
Dew Point 44 °F
Humidity 53%
Rainfall 0.00 in
Snow Depth Not available.
6:07 AM 9:00 PM
Waxing Crescent, 34% visible
METAR KSUN 201647Z 32007KT 10SM FEW050 SCT080 BKN110 15/08 A3002
Pressure 30.02 in
Visibility 10.0 miles
Clouds Few 5000 ft
Scattered Clouds 8000 ft
Mostly Cloudy 11000 ft
Dew Point 44 °F
Humidity 53%
Rainfall 0.00 in
Snow Depth Not available.
6:07 AM 9:00 PM
Waxing Crescent, 34% visible
METAR KSUN 201647Z 32007KT 10SM FEW050 SCT080 BKN110 15/08 A3002

Get Your Daily Forecast Email!

Thanks for signing up!

Be on the lookout for a verification email in your inbox.

You'll start receiving severe weather alerts in your inbox..

×

10-Day Weather Forecast

Almanac

Astronomy

May. 20, 2018 Rise Set
Actual Time
Civil Twilight
Nautical Twilight
Astronomical Twilight
Moon
Length of Visible Light
Length of Day
Tomorrow will be .
, % of the Moon is Illuminated

Today's Extremes

State Highs State Lows

Community

WunderPhotos

Category 6

Welcome to Category 6. This is the collective home for Weather Underground's featured writeups by Dr. Jeff Masters (right), Bob Henson (left), Chris Burt, and other regular contributors.

Nearby

Air Quality

  Air Quality AQ Index Pollutant
Not available.

Snow Depth

Station Depth Elevation

Earthquake Activity

City Distance Mag. Time & Date
Minimum magnitude displayed is 2.5.

Coastal Water Temperatures

Place Temperature

Stations

Nearby Weather Stations

Station Location Temp. Windchill Dew Point Humidity Wind Precip. Elev Updated Type
                   

Watches & Warnings

Flood Advisory
Issued: 11:23 AM MDT May. 20, 2018 – National Weather Service

The flood advisory continues for
the Big Wood River at Hailey
* until further notice.
* At 11 am Sunday the stage was 4.2 feet.
* Bankfull stage is 3.7 feet.
* Flood stage is 5.0 feet.
* Impact... at 5.0 feet... or 2450 cfs... street flooding will occur
along Cedar, War Eagle, and della Vista drives in the lower
subdivisions in Hailey and Riverview drive in Bellevue. Draper
preserve in Hailey is inaccessible. Water may be over some
secondary roads in west Ketchum (wood river drive). Gimlet
subdivision will have flooding issues.



                       Fld observed forecast 6 am
location stg stg day time Mon Tue Wed

Big Wood River
Big Wood River at ha 5.0 4.2 sun 11 am 4.4 4.8 4.8




Lat... Lon 4366 11442 4368 11430 4340 11421 4340 11429